Time;durP1;ratioP1;P1;durP2;ratioP2;P2;SDS_P1;SDS_P2;PMS_P1;PMS_P2;Temp;Humidity;BMP_temperature;BMP_pressure;BME280_temperature;BME280_humidity;BME280_pressure;Samples;Min_cycle;Max_cycle;Signal;HPM_P1;HPM_P2
2024/02/04 00:01:32;;;;;;;10.60;5.65;;;8.40;99.90;;;;;;5068565;28;20059;-50
2024/02/04 00:03:58;;;;;;;6.93;5.57;;;8.40;99.90;;;;;;5067614;28;20461;-50
2024/02/04 00:06:24;;;;;;;12.27;6.28;;;8.40;99.90;;;;;;5067498;28;20037;-50
2024/02/04 00:08:49;;;;;;;16.80;6.22;;;8.40;99.90;;;;;;5068790;28;20040;-50
2024/02/04 00:11:15;;;;;;;14.82;6.20;;;8.30;99.90;;;;;;5067325;28;20025;-51
2024/02/04 00:13:40;;;;;;;9.30;5.85;;;8.40;99.90;;;;;;5067198;28;20096;-50
2024/02/04 00:16:06;;;;;;;8.52;5.30;;;8.30;99.90;;;;;;5067461;28;20048;-50
2024/02/04 00:18:32;;;;;;;8.20;5.65;;;8.30;99.90;;;;;;5068415;28;20029;-50
2024/02/04 00:20:58;;;;;;;9.55;5.90;;;8.30;99.90;;;;;;5068059;28;20029;-50
2024/02/04 00:23:23;;;;;;;13.07;5.60;;;8.40;99.90;;;;;;5068448;28;20021;-50
2024/02/04 00:25:49;;;;;;;12.93;5.88;;;8.40;99.90;;;;;;5067471;28;20021;-51
2024/02/04 00:28:14;;;;;;;7.65;5.18;;;8.50;99.90;;;;;;5068556;28;20028;-50
2024/02/04 00:30:40;;;;;;;8.30;5.03;;;8.30;99.90;;;;;;5066948;28;20040;-50
2024/02/04 00:33:05;;;;;;;10.32;5.90;;;8.30;99.90;;;;;;5066773;28;20477;-50
2024/02/04 00:35:31;;;;;;;11.25;5.35;;;8.30;99.90;;;;;;5066788;28;20032;-50
2024/02/04 00:37:57;;;;;;;10.85;5.57;;;8.30;99.90;;;;;;5066996;28;20033;-50
2024/02/04 00:40:23;;;;;;;11.73;5.30;;;8.30;99.90;;;;;;5066920;28;20029;-50
2024/02/04 00:42:48;;;;;;;9.93;5.20;;;8.30;99.90;;;;;;5066742;28;20021;-50
2024/02/04 00:45:14;;;;;;;8.80;5.22;;;8.30;99.90;;;;;;5068069;28;20096;-50
2024/02/04 00:47:40;;;;;;;9.02;5.10;;;8.30;99.90;;;;;;5066754;28;20029;-50
2024/02/04 00:50:06;;;;;;;11.80;5.55;;;8.30;99.90;;;;;;5049846;28;20389;-50
2024/02/04 00:52:31;;;;;;;9.63;5.25;;;8.20;99.90;;;;;;5067839;28;20047;-50
2024/02/04 00:54:57;;;;;;;11.82;5.53;;;8.20;99.90;;;;;;5066551;28;20041;-50
2024/02/04 00:57:23;;;;;;;10.98;5.72;;;8.30;99.90;;;;;;5049970;28;20461;-50
2024/02/04 00:59:50;;;;;;;8.15;5.70;;;8.30;99.90;;;;;;5066447;28;20071;-50
2024/02/04 01:02:15;;;;;;;6.80;4.70;;;8.20;99.90;;;;;;5067977;28;20029;-50
2024/02/04 01:04:41;;;;;;;10.45;5.22;;;8.20;99.90;;;;;;5066419;28;20079;-50
2024/02/04 01:07:06;;;;;;;6.80;5.07;;;8.20;99.90;;;;;;5066352;28;20029;-50
2024/02/04 01:09:32;;;;;;;9.18;5.03;;;8.20;99.90;;;;;;5067690;28;20098;-50
2024/02/04 01:11:58;;;;;;;8.55;4.95;;;8.20;99.90;;;;;;5066745;28;20066;-50
2024/02/04 01:14:23;;;;;;;9.73;5.03;;;8.20;99.90;;;;;;5066202;28;20033;-50
2024/02/04 01:16:49;;;;;;;7.18;4.90;;;8.20;99.90;;;;;;5066240;28;20044;-50
2024/02/04 01:19:14;;;;;;;10.70;5.28;;;8.20;99.90;;;;;;5049402;28;20078;-50
2024/02/04 01:21:40;;;;;;;8.48;5.20;;;8.20;99.90;;;;;;5067264;28;20037;-50
2024/02/04 01:24:06;;;;;;;7.78;4.93;;;8.20;99.90;;;;;;5065985;28;20044;-50
2024/02/04 01:26:31;;;;;;;7.00;4.32;;;8.20;99.90;;;;;;5065971;28;20033;-50
2024/02/04 01:28:57;;;;;;;6.97;4.80;;;8.20;99.90;;;;;;5065879;28;20029;-50
2024/02/04 01:31:22;;;;;;;11.32;5.57;;;8.20;99.90;;;;;;5065971;28;20029;-50
2024/02/04 01:33:48;;;;;;;7.53;5.03;;;8.20;99.90;;;;;;5065899;28;20029;-50
2024/02/04 01:36:13;;;;;;;11.93;5.30;;;8.20;99.90;;;;;;5067004;28;20063;-50
2024/02/04 01:38:39;;;;;;;8.43;4.80;;;8.20;99.90;;;;;;5067091;28;20473;-50
2024/02/04 01:41:04;;;;;;;8.65;4.70;;;8.20;99.90;;;;;;5065677;28;20033;-50
2024/02/04 01:43:31;;;;;;;9.75;5.25;;;8.20;99.90;;;;;;5065616;28;20028;-50
2024/02/04 01:45:56;;;;;;;10.38;4.63;;;8.20;99.90;;;;;;5065543;28;20025;-50
2024/02/04 01:48:22;;;;;;;8.05;4.57;;;8.20;99.90;;;;;;5048847;28;20397;-50
2024/02/04 01:50:48;;;;;;;8.73;5.05;;;8.20;99.90;;;;;;5065549;28;20036;-50
2024/02/04 01:53:15;;;;;;;8.65;4.72;;;8.20;99.90;;;;;;5065558;28;20473;-50
2024/02/04 01:55:40;;;;;;;9.65;4.80;;;8.20;99.90;;;;;;5065650;28;20131;-50
2024/02/04 01:58:06;;;;;;;7.70;4.50;;;8.10;99.90;;;;;;5065519;28;20028;-50
2024/02/04 02:00:31;;;;;;;6.97;4.53;;;8.20;99.90;;;;;;5048605;28;20048;-50
2024/02/04 02:02:57;;;;;;;7.75;4.85;;;8.20;99.90;;;;;;5065369;28;20047;-50
2024/02/04 02:05:22;;;;;;;6.32;4.50;;;8.20;99.90;;;;;;5065191;28;20036;-50
2024/02/04 02:07:51;;;;;;;8.10;4.57;;;8.10;99.90;;;;;;5065146;28;20029;-50
2024/02/04 02:10:17;;;;;;;9.07;4.70;;;8.20;99.90;;;;;;5066496;28;20080;-50
2024/02/04 02:12:51;;;;;;;6.40;4.32;;;8.20;99.90;;;;;;5048536;28;20021;-49
2024/02/04 02:15:21;;;;;;;5.88;4.70;;;8.10;99.90;;;;;;5048555;28;20059;-50
2024/02/04 02:18:15;;;;;;;7.30;4.65;;;8.20;99.90;;;;;;5065012;28;20246;-50
2024/02/04 02:20:40;;;;;;;11.48;4.90;;;8.10;99.90;;;;;;5065078;28;20051;-50
2024/02/04 02:23:07;;;;;;;9.00;4.45;;;8.20;99.90;;;;;;5066003;28;20028;-50
2024/02/04 02:25:32;;;;;;;4.95;4.03;;;8.10;99.90;;;;;;5065157;28;20045;-50
2024/02/04 02:27:58;;;;;;;8.60;4.63;;;8.10;99.90;;;;;;5065023;28;20502;-50
2024/02/04 02:30:23;;;;;;;7.68;4.38;;;8.10;99.90;;;;;;5066285;28;20032;-50
2024/02/04 02:32:49;;;;;;;7.03;4.30;;;8.10;99.90;;;;;;5066086;28;20033;-50
2024/02/04 02:35:15;;;;;;;5.80;4.57;;;8.10;99.90;;;;;;5048216;28;20039;-50
2024/02/04 02:38:04;;;;;;;8.68;4.40;;;8.10;99.90;;;;;;5064785;28;20052;-50
2024/02/04 02:40:34;;;;;;;7.55;4.60;;;8.10;99.90;;;;;;5065096;28;20051;-50
2024/02/04 02:43:01;;;;;;;5.88;4.40;;;8.10;99.90;;;;;;5066241;28;20055;-50
2024/02/04 02:45:27;;;;;;;10.15;4.90;;;8.10;99.90;;;;;;5064694;28;20049;-50
2024/02/04 02:47:53;;;;;;;7.72;4.32;;;8.10;99.90;;;;;;5064794;28;20029;-50
2024/02/04 02:50:18;;;;;;;7.22;3.80;;;8.10;99.90;;;;;;5064861;28;20079;-50
2024/02/04 02:52:44;;;;;;;5.55;3.72;;;8.10;99.90;;;;;;5064763;28;20033;-50
2024/02/04 02:55:09;;;;;;;5.47;4.15;;;8.10;99.90;;;;;;5065904;28;20029;-50
2024/02/04 02:57:35;;;;;;;6.82;4.05;;;8.10;99.90;;;;;;5064511;28;20025;-50
2024/02/04 03:00:00;;;;;;;5.70;3.65;;;8.10;99.90;;;;;;5065954;28;20037;-50
2024/02/04 03:02:26;;;;;;;5.18;4.15;;;8.10;99.90;;;;;;5065802;28;20029;-50
2024/02/04 03:04:51;;;;;;;6.18;3.67;;;8.00;99.90;;;;;;5065818;28;20075;-50
2024/02/04 03:07:17;;;;;;;7.93;3.67;;;8.00;99.90;;;;;;5065730;28;20500;-51
2024/02/04 03:09:44;;;;;;;5.45;4.05;;;8.00;99.90;;;;;;5065872;28;20025;-51
2024/02/04 03:12:09;;;;;;;5.53;3.90;;;8.00;99.90;;;;;;5065910;28;20321;-51
2024/02/04 03:14:35;;;;;;;7.38;3.92;;;8.00;99.90;;;;;;5064563;28;20049;-50
2024/02/04 03:17:00;;;;;;;6.03;3.65;;;8.00;99.90;;;;;;5065941;28;20032;-50
2024/02/04 03:19:26;;;;;;;4.75;3.33;;;8.00;99.90;;;;;;5066139;28;20036;-50
2024/02/04 03:21:52;;;;;;;5.40;3.75;;;8.00;99.90;;;;;;5064381;28;20033;-50
2024/02/04 03:24:17;;;;;;;5.25;3.42;;;8.00;99.90;;;;;;5064398;28;20033;-50
2024/02/04 03:26:43;;;;;;;3.55;3.22;;;8.00;99.90;;;;;;5064653;28;20124;-49
2024/02/04 03:29:08;;;;;;;6.03;3.72;;;8.00;99.90;;;;;;5047683;28;20024;-50
2024/02/04 03:31:34;;;;;;;5.35;3.38;;;7.90;99.90;;;;;;5064474;28;20025;-50
2024/02/04 03:33:59;;;;;;;5.90;3.70;;;8.00;99.90;;;;;;5064358;28;20109;-50
2024/02/04 03:36:25;;;;;;;3.95;3.25;;;8.00;99.90;;;;;;5050855;28;20079;-50
2024/02/04 03:38:51;;;;;;;7.80;3.90;;;8.00;99.90;;;;;;5068214;28;20028;-50
2024/02/04 03:41:17;;;;;;;5.00;3.38;;;8.00;99.90;;;;;;5068058;28;20079;-51
2024/02/04 03:43:42;;;;;;;3.95;3.15;;;8.00;99.90;;;;;;5068074;28;20021;-50
2024/02/04 03:46:08;;;;;;;5.28;3.40;;;7.90;99.90;;;;;;5051338;28;20029;-50
2024/02/04 03:48:35;;;;;;;6.28;3.72;;;8.00;99.90;;;;;;5067833;28;20033;-50
2024/02/04 03:51:01;;;;;;;4.00;3.30;;;7.90;99.90;;;;;;5067900;28;20033;-50
2024/02/04 03:53:26;;;;;;;3.38;2.97;;;8.00;99.90;;;;;;5069081;28;20029;-50
2024/02/04 03:55:52;;;;;;;6.30;3.50;;;8.00;99.90;;;;;;5067647;28;20029;-50
2024/02/04 03:58:19;;;;;;;4.15;3.72;;;8.00;99.90;;;;;;5068910;28;20040;-50
2024/02/04 04:00:45;;;;;;;4.70;3.65;;;8.00;99.90;;;;;;5050784;28;20029;-50
2024/02/04 04:03:10;;;;;;;5.20;3.58;;;8.00;99.90;;;;;;5068938;28;20491;-50
2024/02/04 04:05:36;;;;;;;4.47;3.30;;;7.90;99.90;;;;;;5068927;28;20037;-50
2024/02/04 04:08:02;;;;;;;4.28;3.20;;;8.00;99.90;;;;;;5068690;28;20029;-51
2024/02/04 04:10:27;;;;;;;5.63;3.70;;;8.00;99.90;;;;;;5067954;28;20037;-50
2024/02/04 04:12:53;;;;;;;4.68;3.47;;;7.90;99.90;;;;;;5068408;28;20048;-50
2024/02/04 04:15:18;;;;;;;5.10;3.65;;;8.00;99.90;;;;;;5067254;28;20025;-50
2024/02/04 04:17:44;;;;;;;4.13;3.17;;;8.00;99.90;;;;;;5067259;28;20055;-50
2024/02/04 04:20:10;;;;;;;4.25;3.50;;;8.00;99.90;;;;;;5068570;28;20028;-50
2024/02/04 04:22:35;;;;;;;4.70;3.67;;;8.00;99.90;;;;;;5068429;28;20029;-50
2024/02/04 04:25:01;;;;;;;4.32;3.85;;;8.00;99.90;;;;;;5050411;28;20033;-50
2024/02/04 04:27:26;;;;;;;5.05;3.88;;;8.00;99.90;;;;;;5068410;28;20044;-50
2024/02/04 04:29:52;;;;;;;5.43;4.07;;;8.00;99.90;;;;;;5068457;28;20021;-50
2024/02/04 04:32:17;;;;;;;4.97;3.95;;;8.00;99.90;;;;;;5066942;28;20056;-50
2024/02/04 04:34:43;;;;;;;5.68;3.60;;;8.00;99.90;;;;;;5068407;28;20025;-50
2024/02/04 04:37:08;;;;;;;4.32;3.92;;;8.00;99.90;;;;;;5068068;28;20033;-50
2024/02/04 04:39:34;;;;;;;5.70;3.92;;;7.90;99.90;;;;;;5068220;28;20048;-50
2024/02/04 04:42:00;;;;;;;5.90;4.20;;;8.30;99.90;;;;;;5068153;28;20059;-50
2024/02/04 04:44:25;;;;;;;6.10;4.00;;;8.00;99.90;;;;;;5068143;28;20500;-48
2024/02/04 04:46:51;;;;;;;5.18;4.32;;;8.00;99.90;;;;;;5066731;28;20091;-50
2024/02/04 04:49:16;;;;;;;5.53;3.92;;;8.00;99.90;;;;;;5068002;28;20049;-50
2024/02/04 04:51:48;;;;;;;4.88;4.28;;;7.90;99.90;;;;;;5066680;28;20033;-51
2024/02/04 04:54:14;;;;;;;5.28;4.40;;;8.00;99.90;;;;;;5066810;28;20072;-51
2024/02/04 04:56:40;;;;;;;4.65;4.20;;;7.90;99.90;;;;;;5066561;28;20044;-50
2024/02/04 04:59:07;;;;;;;5.85;3.97;;;7.90;99.90;;;;;;5066435;28;20025;-50
2024/02/04 05:01:32;;;;;;;5.47;4.30;;;7.90;99.90;;;;;;5066779;28;20033;-50
2024/02/04 05:03:58;;;;;;;6.10;4.32;;;7.90;99.90;;;;;;5066727;28;20108;-50
2024/02/04 05:06:23;;;;;;;5.93;4.25;;;7.90;99.90;;;;;;5066472;28;20063;-50
2024/02/04 05:08:49;;;;;;;6.47;4.25;;;7.90;99.90;;;;;;5049693;28;20084;-50
2024/02/04 05:11:15;;;;;;;6.45;4.55;;;7.90;99.90;;;;;;5066251;28;20048;-50
2024/02/04 05:13:40;;;;;;;4.82;4.10;;;7.90;99.90;;;;;;5066222;28;20029;-50
2024/02/04 05:16:06;;;;;;;4.97;4.50;;;7.90;99.90;;;;;;5066273;28;20033;-50
2024/02/04 05:18:31;;;;;;;6.60;4.38;;;7.90;99.90;;;;;;5049495;28;20059;-50
2024/02/04 05:20:57;;;;;;;5.10;4.60;;;7.90;99.90;;;;;;5067278;28;20032;-50
2024/02/04 05:23:23;;;;;;;6.53;4.75;;;7.90;99.90;;;;;;5066084;28;20049;-50
2024/02/04 05:25:48;;;;;;;6.50;5.07;;;7.90;99.90;;;;;;5065895;28;20070;-50
2024/02/04 05:28:14;;;;;;;5.45;4.50;;;7.80;99.90;;;;;;5067274;28;20032;-50
2024/02/04 05:30:39;;;;;;;5.32;4.45;;;7.80;99.90;;;;;;5065834;28;20033;-50
2024/02/04 05:33:06;;;;;;;6.10;4.63;;;7.80;99.90;;;;;;5065880;28;20029;-50
2024/02/04 05:35:31;;;;;;;5.32;4.47;;;7.80;99.90;;;;;;5065860;28;20097;-49
2024/02/04 05:37:57;;;;;;;5.70;4.63;;;7.80;99.90;;;;;;5065886;28;20049;-50
2024/02/04 05:40:22;;;;;;;5.70;4.53;;;7.80;99.90;;;;;;5065735;28;20079;-50
2024/02/04 05:42:48;;;;;;;7.35;4.78;;;7.80;99.90;;;;;;5049127;28;20021;-50
2024/02/04 05:45:15;;;;;;;5.43;4.60;;;7.80;99.90;;;;;;5065774;28;20045;-50
2024/02/04 05:47:40;;;;;;;4.38;3.97;;;7.80;99.90;;;;;;5065697;28;20059;-51
2024/02/04 05:50:06;;;;;;;6.28;4.30;;;7.80;99.90;;;;;;5065696;28;20029;-50
2024/02/04 05:52:32;;;;;;;5.60;4.53;;;7.80;99.90;;;;;;5065242;28;20032;-50
2024/02/04 05:54:57;;;;;;;4.63;4.10;;;7.80;99.90;;;;;;5065551;28;20040;-50
2024/02/04 05:57:23;;;;;;;5.03;4.53;;;7.80;99.90;;;;;;5065071;28;20060;-50
2024/02/04 05:59:52;;;;;;;5.68;4.28;;;7.70;99.90;;;;;;5065362;28;20036;-50
2024/02/04 06:02:18;;;;;;;5.35;4.78;;;7.70;99.90;;;;;;5065177;28;20036;-50
2024/02/04 06:04:43;;;;;;;6.07;4.53;;;7.70;99.90;;;;;;5066713;28;20032;-50
2024/02/04 06:07:09;;;;;;;5.32;4.82;;;7.70;99.90;;;;;;5065251;28;20017;-50
2024/02/04 06:09:35;;;;;;;4.53;4.05;;;7.70;99.90;;;;;;5066360;28;20029;-50
2024/02/04 06:12:00;;;;;;;5.90;4.75;;;7.70;99.90;;;;;;5065380;28;20055;-50
2024/02/04 06:14:26;;;;;;;4.75;4.28;;;7.70;99.90;;;;;;5048670;28;20033;-50
2024/02/04 06:16:51;;;;;;;5.15;4.20;;;7.70;99.90;;;;;;5065286;28;20025;-50
2024/02/04 06:19:17;;;;;;;6.70;4.63;;;7.70;99.90;;;;;;5065326;28;20045;-50
2024/02/04 06:21:43;;;;;;;5.82;4.85;;;7.70;99.90;;;;;;5066151;28;20037;-48
2024/02/04 06:24:08;;;;;;;4.97;4.47;;;7.70;99.90;;;;;;5064921;28;20021;-48
2024/02/04 06:26:37;;;;;;;5.97;4.55;;;7.70;99.90;;;;;;5066151;28;20091;-48
2024/02/04 06:29:02;;;;;;;5.78;4.80;;;7.70;99.90;;;;;;5065220;28;20089;-48
2024/02/04 06:31:28;;;;;;;7.20;4.22;;;7.70;99.90;;;;;;5066000;28;20055;-48
2024/02/04 06:33:53;;;;;;;8.30;4.45;;;7.70;99.90;;;;;;5064927;28;20059;-48
2024/02/04 06:36:19;;;;;;;14.90;5.28;;;7.70;99.90;;;;;;5065984;28;20071;-50
2024/02/04 06:38:44;;;;;;;8.40;4.53;;;7.70;99.90;;;;;;5066291;28;20500;-50
2024/02/04 06:41:10;;;;;;;21.30;5.32;;;7.70;99.90;;;;;;5066045;28;20381;-50
2024/02/04 06:43:37;;;;;;;16.10;5.32;;;7.70;99.90;;;;;;5064606;28;20033;-50
2024/02/04 06:46:03;;;;;;;10.55;5.05;;;7.60;99.90;;;;;;5065080;28;20029;-50
2024/02/04 06:48:29;;;;;;;9.18;4.53;;;7.60;99.90;;;;;;5066067;28;20053;-50
2024/02/04 06:50:54;;;;;;;12.63;5.03;;;7.60;99.90;;;;;;5066059;28;20032;-50
2024/02/04 06:53:20;;;;;;;18.67;5.55;;;7.70;99.90;;;;;;5047925;28;20051;-50
2024/02/04 06:55:45;;;;;;;19.48;6.00;;;7.70;99.90;;;;;;5066068;28;20037;-50
2024/02/04 06:58:11;;;;;;;22.27;6.10;;;7.70;99.90;;;;;;5066062;28;20033;-50
2024/02/04 07:00:37;;;;;;;24.40;6.47;;;7.60;99.90;;;;;;5064908;28;20025;-51
2024/02/04 07:03:02;;;;;;;14.93;5.53;;;7.60;99.90;;;;;;5065006;28;20088;-50
2024/02/04 07:05:28;;;;;;;26.42;6.45;;;7.70;99.90;;;;;;5047902;28;20544;-50
2024/02/04 07:07:53;;;;;;;220.65;21.90;;;7.70;99.90;;;;;;5065596;28;20018;-50
2024/02/04 07:10:19;;;;;;;142.68;15.27;;;7.70;99.90;;;;;;5066179;28;20029;-50
2024/02/04 07:12:45;;;;;;;189.27;21.38;;;7.70;99.90;;;;;;5069748;28;20479;-50
2024/02/04 07:15:10;;;;;;;118.80;14.90;;;7.70;99.90;;;;;;5068599;28;20377;-50
2024/02/04 07:17:36;;;;;;;112.15;12.65;;;7.70;99.90;;;;;;5068202;28;20119;-50
2024/02/04 07:20:02;;;;;;;82.43;12.32;;;7.70;99.90;;;;;;5069709;28;20031;-50
2024/02/04 07:22:28;;;;;;;84.15;12.25;;;7.60;99.90;;;;;;5069530;28;20032;-50
2024/02/04 07:24:53;;;;;;;64.28;12.10;;;7.60;99.90;;;;;;5068532;28;20370;-50
2024/02/04 07:27:19;;;;;;;83.20;11.95;;;7.60;99.90;;;;;;5051508;28;20025;-50
2024/02/04 07:29:45;;;;;;;86.68;12.98;;;7.60;99.90;;;;;;5068224;28;20029;-50
2024/02/04 07:32:10;;;;;;;66.18;10.82;;;7.60;99.90;;;;;;5068102;28;20491;-50
2024/02/04 07:34:36;;;;;;;66.35;10.35;;;7.70;99.90;;;;;;5084731;28;20505;-50
2024/02/04 07:37:02;;;;;;;52.80;10.82;;;7.70;99.90;;;;;;5068920;28;20036;-50
2024/02/04 07:39:28;;;;;;;43.88;9.75;;;7.60;99.90;;;;;;5069312;28;20044;-50
2024/02/04 07:41:55;;;;;;;50.58;9.60;;;7.60;99.90;;;;;;5068034;28;20055;-50
2024/02/04 07:44:23;;;;;;;49.30;9.63;;;7.60;99.90;;;;;;5067953;28;20028;-50
2024/02/04 07:46:48;;;;;;;55.90;10.10;;;7.60;99.90;;;;;;5069257;28;20029;-50
2024/02/04 07:49:14;;;;;;;50.40;10.52;;;7.60;99.90;;;;;;5068903;28;20051;-50
2024/02/04 07:51:40;;;;;;;61.15;10.50;;;7.60;99.90;;;;;;5067776;28;20040;-50
2024/02/04 07:54:05;;;;;;;63.17;11.38;;;7.70;99.90;;;;;;5069041;28;20526;-50
2024/02/04 07:56:31;;;;;;;73.60;10.60;;;7.60;99.90;;;;;;5068907;28;20056;-50
2024/02/04 07:58:56;;;;;;;60.00;9.93;;;7.70;99.90;;;;;;5068856;28;20039;-50
2024/02/04 08:01:23;;;;;;;47.05;10.52;;;7.60;99.90;;;;;;5067245;28;20054;-50
2024/02/04 08:03:49;;;;;;;60.53;11.35;;;7.70;99.90;;;;;;5068525;28;20495;-50
2024/02/04 08:06:15;;;;;;;39.95;8.95;;;7.70;99.90;;;;;;5068874;28;20025;-50
2024/02/04 08:08:42;;;;;;;53.13;10.48;;;7.70;99.90;;;;;;5067383;28;20056;-50
2024/02/04 08:11:07;;;;;;;56.03;10.07;;;7.70;99.90;;;;;;5083963;28;20031;-50
2024/02/04 08:13:33;;;;;;;56.75;10.55;;;7.70;99.90;;;;;;5067431;28;20052;-50
2024/02/04 08:15:59;;;;;;;51.85;9.43;;;7.70;99.90;;;;;;5067286;28;20041;-50
2024/02/04 08:18:25;;;;;;;55.83;10.70;;;7.70;99.90;;;;;;5050480;28;20484;-50
2024/02/04 08:20:50;;;;;;;51.33;9.55;;;7.70;99.90;;;;;;5066829;28;20035;-50
2024/02/04 08:23:16;;;;;;;50.20;9.65;;;7.70;99.90;;;;;;5068488;28;20029;-50
2024/02/04 08:25:41;;;;;;;41.58;10.10;;;7.70;99.90;;;;;;5068491;28;20041;-50
2024/02/04 08:28:10;;;;;;;53.80;10.13;;;7.70;99.90;;;;;;5068154;28;20041;-50
2024/02/04 08:30:35;;;;;;;42.15;10.27;;;7.70;99.90;;;;;;5068430;28;20028;-50
2024/02/04 08:33:01;;;;;;;46.22;9.70;;;7.70;99.90;;;;;;5068297;28;20029;-50
2024/02/04 08:35:26;;;;;;;46.45;10.20;;;7.70;99.90;;;;;;5068096;28;20037;-50
2024/02/04 08:37:52;;;;;;;52.08;10.02;;;7.70;99.90;;;;;;5066677;28;20028;-50
2024/02/04 08:40:17;;;;;;;38.13;9.68;;;7.70;99.90;;;;;;5067663;28;20036;-50
2024/02/04 08:42:43;;;;;;;44.15;9.38;;;7.70;99.90;;;;;;5067745;28;20025;-50
2024/02/04 08:45:09;;;;;;;34.80;9.25;;;7.80;99.90;;;;;;5066962;28;20021;-50
2024/02/04 08:47:35;;;;;;;38.30;9.35;;;7.80;99.90;;;;;;5067719;28;20045;-50
2024/02/04 08:50:00;;;;;;;43.05;9.80;;;7.80;99.90;;;;;;5068130;28;20029;-50
2024/02/04 08:52:26;;;;;;;42.67;9.50;;;7.80;99.90;;;;;;5066790;28;20036;-50
2024/02/04 08:54:52;;;;;;;41.22;8.02;;;7.80;99.90;;;;;;5067861;28;20029;-50
2024/02/04 08:57:17;;;;;;;35.75;8.48;;;7.80;99.90;;;;;;5049774;28;20036;-50
2024/02/04 08:59:43;;;;;;;45.60;9.38;;;7.80;99.90;;;;;;5067925;28;20055;-50
2024/02/04 09:02:09;;;;;;;36.22;8.63;;;7.80;99.90;;;;;;5066420;28;20035;-50
2024/02/04 09:04:40;;;;;;;34.25;8.25;;;7.80;99.90;;;;;;5067722;28;20032;-50
2024/02/04 09:07:06;;;;;;;35.03;8.27;;;7.80;99.90;;;;;;5066392;28;20025;-50
2024/02/04 09:09:32;;;;;;;27.33;8.68;;;7.80;99.90;;;;;;5067433;28;20033;-50
2024/02/04 09:11:57;;;;;;;32.33;8.15;;;7.80;99.90;;;;;;5066064;28;20037;-50
2024/02/04 09:14:25;;;;;;;36.08;7.65;;;7.80;99.90;;;;;;5049293;28;20025;-50
2024/02/04 09:16:51;;;;;;;58.47;9.48;;;7.90;99.90;;;;;;5066970;28;20033;-50
2024/02/04 09:19:16;;;;;;;25.75;8.10;;;7.80;99.90;;;;;;5066785;28;20104;-50
2024/02/04 09:21:42;;;;;;;29.15;7.93;;;7.80;99.90;;;;;;5066251;28;20029;-50
2024/02/04 09:24:07;;;;;;;37.55;7.75;;;7.90;99.90;;;;;;5065898;28;20110;-50
2024/02/04 09:26:33;;;;;;;26.73;8.40;;;7.90;99.90;;;;;;5067104;28;20044;-51
2024/02/04 09:28:59;;;;;;;40.83;9.05;;;7.90;99.90;;;;;;5066672;28;20022;-48
2024/02/04 09:31:31;;;;;;;27.88;6.65;;;7.90;99.90;;;;;;5065567;28;20041;-50
2024/02/04 09:33:57;;;;;;;28.73;8.27;;;7.90;99.90;;;;;;5047478;28;20025;-59
2024/02/04 09:36:23;;;;;;;34.15;9.00;;;8.00;99.90;;;;;;5065995;28;20037;-59
2024/02/04 09:38:48;;;;;;;41.55;8.63;;;8.00;99.90;;;;;;5065163;28;20055;-59
2024/02/04 09:41:14;;;;;;;38.88;9.35;;;8.00;99.90;;;;;;5064766;28;20029;-59
2024/02/04 09:43:39;;;;;;;59.42;10.00;;;8.00;99.90;;;;;;5066567;28;20025;-59
2024/02/04 09:46:05;;;;;;;46.05;8.02;;;8.00;99.90;;;;;;5045500;28;20577;-59
2024/02/04 09:48:32;;;;;;;53.80;8.70;;;8.00;99.90;;;;;;5052444;28;20048;-59
2024/02/04 09:50:58;;;;;;;34.78;8.32;;;8.00;99.90;;;;;;5065203;28;20045;-59
2024/02/04 09:53:34;;;;;;;36.70;8.48;;;8.10;99.90;;;;;;5066434;28;20047;-59
2024/02/04 09:56:01;;;;;;;46.53;8.68;;;8.10;99.90;;;;;;5066369;28;20036;-59
2024/02/04 09:58:26;;;;;;;72.60;10.43;;;8.10;99.90;;;;;;5065079;28;20025;-59
2024/02/04 10:00:52;;;;;;;49.88;9.27;;;8.10;99.90;;;;;;5064865;28;20040;-59
2024/02/04 10:03:18;;;;;;;44.97;9.80;;;8.20;99.90;;;;;;5047209;28;20047;-59
2024/02/04 10:05:43;;;;;;;100.03;14.50;;;8.20;99.90;;;;;;5048388;28;20050;-58
2024/02/04 10:08:09;;;;;;;80.68;14.63;;;8.20;99.90;;;;;;5064375;28;20020;-59
2024/02/04 10:10:35;;;;;;;58.13;10.93;;;8.20;99.90;;;;;;5064341;28;20029;-59
2024/02/04 10:13:08;;;;;;;82.05;10.90;;;8.30;99.90;;;;;;5063384;28;20044;-59
2024/02/04 10:15:33;;;;;;;72.38;12.10;;;8.30;99.90;;;;;;5046407;28;20021;-59
2024/02/04 10:17:59;;;;;;;81.82;12.05;;;8.30;99.90;;;;;;5062314;28;20161;-59
2024/02/04 10:20:24;;;;;;;89.30;12.15;;;8.40;99.90;;;;;;5045815;28;20029;-59
2024/02/04 10:22:50;;;;;;;63.38;11.48;;;8.30;99.90;;;;;;5063907;28;20021;-59
2024/02/04 10:25:16;;;;;;;62.42;10.32;;;8.40;99.90;;;;;;5062516;28;20025;-59
2024/02/04 10:27:42;;;;;;;97.75;12.63;;;8.40;99.90;;;;;;5062372;28;20028;-59
2024/02/04 10:30:08;;;;;;;70.95;12.32;;;8.40;99.90;;;;;;5047908;28;20076;-59
2024/02/04 10:32:34;;;;;;;356.73;30.00;;;8.40;99.90;;;;;;5065816;28;20085;-59
2024/02/04 10:35:00;;;;;;;143.70;15.30;;;8.50;99.90;;;;;;5064526;28;20032;-59
2024/02/04 10:37:26;;;;;;;116.15;12.75;;;8.50;99.90;;;;;;5064271;28;20029;-58
2024/02/04 10:39:52;;;;;;;116.60;16.27;;;8.50;99.90;;;;;;5047977;28;20040;-59
2024/02/04 10:42:17;;;;;;;149.77;15.05;;;8.60;99.90;;;;;;5064434;28;20516;-58
2024/02/04 10:44:43;;;;;;;106.63;14.65;;;8.60;99.90;;;;;;5052266;28;20404;-58
2024/02/04 10:47:09;;;;;;;128.02;16.23;;;8.60;99.90;;;;;;5054561;28;20021;-59
2024/02/04 10:49:36;;;;;;;124.22;17.80;;;8.60;99.90;;;;;;5054539;28;20025;-59
2024/02/04 10:52:03;;;;;;;121.18;14.93;;;8.60;99.90;;;;;;5071221;28;20045;-59
2024/02/04 10:54:29;;;;;;;125.40;15.57;;;8.70;99.90;;;;;;5070974;28;20031;-59
2024/02/04 10:56:56;;;;;;;126.68;15.95;;;8.70;99.90;;;;;;5036796;28;20128;-59
2024/02/04 10:59:22;;;;;;;106.60;13.80;;;8.70;99.90;;;;;;5056477;28;20108;-59
2024/02/04 11:01:48;;;;;;;177.40;17.30;;;8.70;99.90;;;;;;5061371;28;20064;-59
2024/02/04 11:04:14;;;;;;;144.25;16.50;;;8.70;99.90;;;;;;5057109;28;20089;-59
2024/02/04 11:06:43;;;;;;;143.57;18.00;;;8.80;99.90;;;;;;5048838;28;20029;-59
2024/02/04 11:09:09;;;;;;;124.82;16.77;;;8.80;99.90;;;;;;5082552;28;20095;-59
2024/02/04 11:11:36;;;;;;;121.38;18.85;;;8.80;99.90;;;;;;5052098;28;20034;-59
2024/02/04 11:14:03;;;;;;;123.95;17.88;;;8.90;99.90;;;;;;5082135;28;20116;-59
2024/02/04 11:16:34;;;;;;;170.77;20.15;;;8.90;99.90;;;;;;5070472;28;20029;-59
2024/02/04 11:19:25;;;;;;;130.35;17.45;;;8.90;99.90;;;;;;5068831;28;20114;-59
2024/02/04 11:22:21;;;;;;;173.15;20.98;;;8.90;99.90;;;;;;5072097;28;20095;-59
2024/02/04 11:24:56;;;;;;;;;;;8.90;99.90;;;;;;5069711;28;20090;-59
2024/02/04 11:27:21;;;;;;;149.63;19.52;;;8.90;99.90;;;;;;5061790;28;19909;-59
2024/02/04 11:29:47;;;;;;;161.43;19.88;;;8.90;99.90;;;;;;5069042;28;20242;-59
2024/02/04 11:32:13;;;;;;;116.55;16.55;;;9.00;99.90;;;;;;5061786;28;20056;-59
2024/02/04 11:34:38;;;;;;;151.13;18.85;;;9.00;99.90;;;;;;5056062;28;20044;-59
2024/02/04 11:37:25;;;;;;;151.63;19.30;;;9.00;99.90;;;;;;5050502;28;20048;-59
2024/02/04 11:39:51;;;;;;;163.48;21.27;;;9.00;99.90;;;;;;5055527;28;20516;-59
2024/02/04 11:42:17;;;;;;;119.50;17.35;;;9.00;99.90;;;;;;5052072;28;20025;-58
2024/02/04 11:44:43;;;;;;;147.23;18.77;;;9.10;99.90;;;;;;5050728;28;20057;-59
2024/02/04 11:47:09;;;;;;;173.40;20.38;;;9.10;99.90;;;;;;5051010;28;20093;-59
2024/02/04 11:49:34;;;;;;;155.63;19.38;;;9.10;99.90;;;;;;5050431;28;20033;-59
2024/02/04 11:52:00;;;;;;;161.10;19.08;;;9.10;99.90;;;;;;5051865;28;20052;-59
2024/02/04 11:54:26;;;;;;;153.23;21.73;;;9.10;99.90;;;;;;5059074;28;20086;-59
2024/02/04 11:56:56;;;;;;;148.30;19.98;;;9.20;99.90;;;;;;5061533;28;20033;-59
2024/02/04 11:59:23;;;;;;;143.02;18.40;;;9.20;99.90;;;;;;5067753;28;20033;-59
2024/02/04 12:01:49;;;;;;;149.25;20.40;;;9.20;99.90;;;;;;5068220;28;20029;-59
2024/02/04 12:04:18;;;;;;;155.63;21.25;;;9.20;99.90;;;;;;5063506;28;20085;-59
2024/02/04 12:06:43;;;;;;;160.95;21.05;;;9.30;99.90;;;;;;5048395;28;20072;-59
2024/02/04 12:09:09;;;;;;;148.77;18.35;;;9.30;99.90;;;;;;5057355;28;20051;-59
2024/02/04 12:11:39;;;;;;;124.28;19.58;;;9.30;99.90;;;;;;5076954;28;20449;-59
2024/02/04 12:14:07;;;;;;;95.30;15.55;;;9.30;99.90;;;;;;5064432;28;20025;-59
2024/02/04 12:16:36;;;;;;;108.68;14.55;;;9.40;99.90;;;;;;5076257;28;20037;-59
2024/02/04 12:19:05;;;;;;;133.77;17.25;;;9.40;99.90;;;;;;5057003;28;20025;-59
2024/02/04 12:21:31;;;;;;;123.68;16.98;;;9.40;99.90;;;;;;5062653;28;20029;-59
2024/02/04 12:23:58;;;;;;;141.50;20.55;;;9.40;99.90;;;;;;5065945;28;20073;-59
2024/02/04 12:26:23;;;;;;;146.38;18.92;;;9.40;99.90;;;;;;5068410;28;20033;-59
2024/02/04 12:28:50;;;;;;;151.40;18.08;;;9.50;99.90;;;;;;5093694;28;20032;-59
2024/02/04 12:31:19;;;;;;;95.88;14.13;;;9.50;99.90;;;;;;5054999;28;20059;-59
2024/02/04 12:33:57;;;;;;;133.80;19.52;;;9.50;99.90;;;;;;5054347;28;20144;-59
2024/02/04 12:36:23;;;;;;;130.48;17.88;;;9.50;99.90;;;;;;5054682;28;20072;-59
2024/02/04 12:39:09;;;;;;;162.10;22.60;;;9.60;99.90;;;;;;5052440;28;20485;-59
2024/02/04 12:41:35;;;;;;;139.02;18.38;;;9.60;99.90;;;;;;5051626;28;20048;-59
2024/02/04 12:44:03;;;;;;;155.25;19.70;;;9.70;99.90;;;;;;5044164;28;20017;-59